Merle K (Mudhole) Smith Airport Cordova US
ICAO: PACV
IATA:
Category: Medium
Scheduled Services:

Elevation: 54 ft
TransAlt. 18000 ft.

Airport Communications:
ANCHORAGE APP/DEP:133.6
ASOS:134.8
CTAF:123.6
JUNEAU RDO:122.2

PACV Zoom In..

If you have problems with the map follow the link
https://www.worldairports.se/pages/airport.php?
ICAO=PACV

Runways:

(A) RW 09 length 7500 ft width 150 ft
---- / hdg 95

(B) RW 16 length 1899 ft width 30 ft
---- / hdg 162

(C) RW 27 length 7500 ft width 150 ft
ILS 110.70 / hdg 275

(D) RW 34 length 1899 ft width 30 ft
---- / hdg 342

Location; PACV
Day. 19 / Time. 12.53 Zulu
* Altimeter: 29.56
* Temperature: 07° c. 44.6°f.
* Wind from: 090° Speed 07 kn.
Dewpoint: 07° c.
Visibility: 10 Statute Miles.
Clouds: Few 700 ft.
Clouds: Broken 1600 ft.
Clouds: Overcast 2200 ft.

PACV 191253Z 09007KT 10SM FEW007 BKN016 OVC022 07/07 A2956 RMK AO2 RAE42 SLP011 P0002 T00720072


Wind From 090°
Speed 07 kn.

 
 
jpsmedia.com for Web Design worldairports.se 2018   terms of use